createdAt,value
2022-09-30T00:04:39.007Z,7.24
2022-09-30T00:09:43.034Z,7.23
2022-09-30T00:14:45.831Z,7.13
2022-09-30T00:19:48.624Z,7.10
2022-09-30T00:24:52.832Z,7.05
2022-09-30T00:29:55.626Z,7.04
2022-09-30T00:34:58.475Z,6.90
2022-09-30T00:40:03.011Z,6.74
2022-09-30T00:45:08.152Z,6.67
2022-09-30T00:50:21.540Z,6.69
2022-09-30T00:55:37.065Z,6.59
2022-09-30T01:00:40.029Z,6.54
2022-09-30T01:05:43.738Z,6.59
2022-09-30T01:10:47.941Z,6.57
2022-09-30T01:16:24.810Z,6.58
2022-09-30T01:21:55.865Z,6.54
2022-09-30T01:27:11.600Z,6.51
2022-09-30T01:32:25.746Z,6.44
2022-09-30T01:37:40.209Z,6.37
2022-09-30T01:42:51.648Z,6.36
2022-09-30T01:48:01.600Z,6.29
2022-09-30T01:53:11.648Z,6.21
2022-09-30T01:58:20.351Z,6.19
2022-09-30T02:03:32.352Z,6.15
2022-09-30T02:08:42.403Z,6.12
2022-09-30T02:13:50.205Z,6.12
2022-09-30T02:18:58.312Z,6.16
2022-09-30T02:24:06.035Z,6.13
2022-09-30T02:29:14.981Z,6.07
2022-09-30T02:34:22.725Z,6.01
2022-09-30T02:39:35.217Z,5.92
2022-09-30T02:44:39.021Z,5.92
2022-09-30T02:49:49.380Z,5.90
2022-09-30T02:55:09.350Z,5.93
2022-09-30T03:00:13.473Z,5.88
2022-09-30T03:05:18.271Z,5.91
2022-09-30T03:10:21.075Z,5.87
2022-09-30T03:15:47.078Z,5.84
2022-09-30T03:21:07.107Z,5.73
2022-09-30T03:26:19.550Z,5.61
2022-09-30T03:31:31.714Z,5.63
2022-09-30T03:36:42.524Z,5.61
2022-09-30T03:41:51.359Z,5.58
2022-09-30T03:46:58.661Z,5.52
2022-09-30T03:52:07.090Z,5.46
2022-09-30T03:57:09.902Z,5.43
2022-09-30T04:02:13.607Z,5.35
2022-09-30T04:07:17.837Z,5.34
2022-09-30T04:12:20.666Z,5.43
2022-09-30T04:17:23.622Z,5.45
2022-09-30T04:22:27.791Z,5.37
2022-09-30T04:27:30.619Z,5.27
2022-09-30T04:32:33.528Z,5.28
2022-09-30T04:37:37.836Z,5.23
2022-09-30T04:42:42.944Z,5.20
2022-09-30T04:47:46.101Z,5.13
2022-09-30T04:52:50.245Z,5.13
2022-09-30T04:57:53.029Z,5.15
2022-09-30T05:02:55.813Z,5.12
2022-09-30T05:08:02.621Z,5.10
2022-09-30T05:13:05.393Z,5.09
2022-09-30T05:18:08.193Z,5.03
2022-09-30T05:23:12.336Z,5.04
2022-09-30T05:28:15.481Z,5.13
2022-09-30T05:33:18.282Z,5.09
2022-09-30T05:38:22.985Z,5.15
2022-09-30T05:43:26.146Z,5.22
2022-09-30T05:48:29.040Z,5.20
2022-09-30T05:53:33.597Z,5.24
2022-09-30T05:58:37.712Z,5.20
2022-09-30T06:03:40.857Z,5.21
2022-09-30T06:08:45.218Z,5.39
2022-09-30T06:13:49.179Z,5.54
2022-09-30T06:18:52.464Z,6.07
2022-09-30T06:23:56.726Z,6.44
2022-09-30T06:28:59.542Z,6.49
2022-09-30T06:34:02.585Z,6.40
2022-09-30T06:39:11.452Z,6.72
2022-09-30T06:44:16.261Z,7.02
2022-09-30T06:49:19.173Z,7.39
2022-09-30T06:54:23.863Z,7.71
2022-09-30T06:59:26.667Z,7.98
2022-09-30T07:04:30.038Z,8.08
2022-09-30T07:09:34.531Z,8.20
2022-09-30T07:14:37.483Z,8.15
2022-09-30T07:19:40.309Z,8.40
2022-09-30T07:24:44.450Z,9.08
2022-09-30T07:35:10.307Z,9.75
2022-09-30T07:40:15.166Z,10.09
2022-09-30T07:45:18.836Z,10.27
2022-09-30T07:50:21.723Z,10.35
2022-09-30T07:55:25.871Z,11.09
2022-09-30T08:00:42.092Z,11.11
2022-09-30T08:05:45.800Z,11.18
2022-09-30T08:10:49.952Z,11.34
2022-09-30T08:15:52.806Z,11.82
2022-09-30T08:20:55.672Z,12.10
2022-09-30T08:26:04.187Z,12.62
2022-09-30T08:31:08.048Z,12.55
2022-09-30T08:36:13.469Z,12.60
2022-09-30T08:41:32.096Z,12.96
2022-09-30T08:46:45.248Z,13.20
2022-09-30T08:51:49.581Z,13.65
2022-09-30T08:56:54.760Z,14.00
2022-09-30T09:02:05.036Z,14.32
2022-09-30T09:07:16.159Z,13.99
2022-09-30T09:12:33.504Z,13.63
2022-09-30T09:18:10.992Z,14.22
2022-09-30T09:23:15.140Z,14.64
2022-09-30T09:28:26.996Z,14.34
2022-09-30T09:33:32.072Z,14.90
2022-09-30T09:38:46.286Z,15.52
2022-09-30T09:44:01.090Z,14.83
2022-09-30T09:49:30.964Z,15.05
2022-09-30T09:54:38.648Z,15.11
2022-09-30T09:59:56.508Z,14.83
2022-09-30T10:05:03.900Z,15.31
2022-09-30T10:10:10.103Z,15.44
2022-09-30T10:15:23.720Z,15.76
2022-09-30T10:20:31.069Z,15.69
2022-09-30T10:25:33.821Z,16.48
2022-09-30T10:30:46.243Z,15.99
2022-09-30T10:36:12.694Z,16.18
2022-09-30T10:41:24.295Z,15.96
2022-09-30T10:46:32.331Z,16.31
2022-09-30T10:51:36.325Z,17.65
2022-09-30T10:56:45.865Z,17.24
2022-09-30T11:01:57.616Z,18.34
2022-09-30T11:07:14.453Z,18.22
2022-09-30T11:12:23.504Z,17.84
2022-09-30T11:17:34.724Z,17.76
2022-09-30T11:22:45.016Z,17.55
2022-09-30T11:27:59.409Z,18.57
2022-09-30T11:33:19.761Z,19.44
2022-09-30T11:38:41.225Z,18.84
2022-09-30T11:43:53.668Z,18.77
2022-09-30T11:49:08.102Z,20.12
2022-09-30T11:54:28.005Z,19.53
2022-09-30T11:59:35.812Z,17.96
2022-09-30T12:04:44.144Z,18.40
2022-09-30T12:09:50.833Z,16.99
2022-09-30T12:14:58.891Z,16.86
2022-09-30T12:20:09.139Z,17.39
2022-09-30T12:25:16.204Z,17.36
2022-09-30T12:30:23.007Z,16.44
2022-09-30T12:35:59.117Z,15.99
2022-09-30T12:41:20.014Z,19.31
2022-09-30T12:46:40.551Z,21.41
2022-09-30T12:51:46.978Z,23.36
2022-09-30T12:56:56.048Z,21.68
2022-09-30T13:02:00.864Z,21.66
2022-09-30T13:07:18.903Z,22.95
2022-09-30T13:12:28.926Z,21.52
2022-09-30T13:17:32.412Z,22.31
2022-09-30T13:22:57.713Z,21.52
2022-09-30T13:28:29.853Z,21.97
2022-09-30T13:33:44.393Z,22.97
2022-09-30T13:39:08.161Z,21.51
2022-09-30T13:44:17.706Z,18.75
2022-09-30T13:49:24.834Z,16.40
2022-09-30T13:54:34.015Z,17.73
2022-09-30T13:59:51.158Z,18.32
2022-09-30T14:05:19.609Z,20.81
2022-09-30T14:10:40.178Z,19.80
2022-09-30T14:16:18.450Z,20.64
2022-09-30T14:21:35.114Z,21.23
2022-09-30T14:26:54.755Z,21.65
2022-09-30T14:31:59.873Z,19.79
2022-09-30T14:37:04.260Z,20.36
2022-09-30T14:42:17.628Z,19.84
2022-09-30T14:47:20.484Z,18.74
2022-09-30T14:52:38.301Z,18.41
2022-09-30T14:57:44.753Z,18.27
2022-09-30T15:02:47.761Z,17.69
2022-09-30T15:12:56.083Z,15.97
2022-09-30T15:17:58.832Z,17.01
2022-09-30T15:23:04.431Z,16.66
2022-09-30T15:28:11.515Z,16.08
2022-09-30T15:33:19.261Z,16.59
2022-09-30T15:38:25.815Z,16.98
2022-09-30T15:43:36.655Z,16.61
2022-09-30T15:48:44.729Z,16.99
2022-09-30T15:53:49.983Z,16.70
2022-09-30T15:58:58.169Z,16.23
2022-09-30T16:04:03.969Z,16.32
2022-09-30T16:09:18.545Z,16.41
2022-09-30T16:14:26.873Z,16.26
2022-09-30T16:19:31.055Z,15.78
2022-09-30T16:24:50.033Z,15.45
2022-09-30T16:29:54.162Z,15.22
2022-09-30T16:34:58.346Z,15.07
2022-09-30T16:40:11.444Z,15.20
2022-09-30T16:45:16.773Z,14.92
2022-09-30T16:50:25.643Z,14.72
2022-09-30T16:55:28.927Z,14.45
2022-09-30T17:00:33.525Z,14.29
2022-09-30T17:05:36.305Z,14.07
2022-09-30T17:10:39.152Z,13.92
2022-09-30T17:21:21.013Z,13.54
2022-09-30T17:26:23.873Z,13.43
2022-09-30T17:31:26.653Z,13.39
2022-09-30T17:36:31.229Z,13.30
2022-09-30T17:41:52.425Z,13.18
2022-09-30T17:47:00.629Z,13.02
2022-09-30T17:52:05.401Z,13.00
2022-09-30T17:57:08.330Z,12.86
2022-09-30T18:02:12.771Z,12.75
2022-09-30T18:07:16.904Z,12.65
2022-09-30T18:12:19.671Z,12.59
2022-09-30T18:17:23.368Z,12.52
2022-09-30T18:22:27.516Z,12.50
2022-09-30T18:27:33.849Z,12.44
2022-09-30T18:32:36.649Z,12.34
2022-09-30T18:37:42.331Z,12.23
2022-09-30T18:42:45.530Z,12.10
2022-09-30T18:47:48.582Z,12.06
2022-09-30T18:52:53.656Z,12.07
2022-09-30T18:57:57.802Z,12.06
2022-09-30T19:03:00.548Z,11.97
2022-09-30T19:08:04.680Z,11.88
2022-09-30T19:13:07.463Z,11.85
2022-09-30T19:18:11.745Z,11.86
2022-09-30T19:23:16.302Z,11.87
2022-09-30T19:28:22.212Z,11.86
2022-09-30T19:33:27.274Z,11.86
2022-09-30T19:38:37.817Z,11.98
2022-09-30T19:43:41.218Z,12.04
2022-09-30T19:48:44.011Z,12.11
2022-09-30T19:54:01.787Z,12.19
2022-09-30T19:59:07.185Z,12.18
2022-09-30T20:04:10.677Z,12.27
2022-09-30T20:09:14.879Z,12.23
2022-09-30T20:14:35.085Z,12.15
2022-09-30T20:19:37.889Z,12.01
2022-09-30T20:24:42.045Z,12.05
2022-09-30T20:29:44.799Z,11.99
2022-09-30T20:34:47.533Z,12.06
2022-09-30T20:39:51.753Z,12.00
2022-09-30T20:44:56.060Z,11.85
2022-09-30T20:49:59.409Z,11.69
2022-09-30T20:55:05.946Z,11.47
2022-09-30T21:00:10.299Z,11.42
2022-09-30T21:05:13.093Z,11.29
2022-09-30T21:10:18.046Z,11.37
2022-09-30T21:15:20.841Z,11.34
2022-09-30T21:20:23.745Z,11.18
2022-09-30T21:25:27.953Z,11.15
2022-09-30T21:30:30.708Z,11.22
2022-09-30T21:35:33.847Z,11.14
2022-09-30T21:40:38.407Z,11.12
2022-09-30T21:45:42.124Z,11.05
2022-09-30T21:50:44.911Z,11.06
2022-09-30T21:55:49.780Z,10.98
2022-09-30T22:00:53.307Z,10.86
2022-09-30T22:05:57.521Z,10.93
2022-09-30T22:11:01.839Z,11.03
2022-09-30T22:16:07.713Z,11.08
2022-09-30T22:21:14.450Z,11.14
2022-09-30T22:26:21.369Z,11.08
2022-09-30T22:31:27.636Z,11.13
2022-09-30T22:36:47.861Z,11.14
2022-09-30T22:41:54.119Z,11.24
2022-09-30T22:46:59.499Z,11.12
2022-09-30T22:52:03.642Z,11.04
2022-09-30T22:57:09.714Z,10.95
2022-09-30T23:02:12.498Z,10.91
2022-09-30T23:07:15.074Z,11.03
2022-09-30T23:12:19.208Z,10.89
2022-09-30T23:17:22.098Z,10.89
2022-09-30T23:22:24.850Z,11.07
2022-09-30T23:27:28.781Z,10.72
2022-09-30T23:32:31.525Z,10.95
2022-09-30T23:37:34.077Z,10.66
2022-09-30T23:42:38.199Z,10.86
2022-09-30T23:47:41.023Z,10.93
2022-09-30T23:52:43.913Z,10.94
2022-09-30T23:57:48.527Z,11.10
